Tropical Cyclones
[Index]
Main Index Home Page Stock Weather Photos Extreme Storms Discussion Storm News and Storm Chasing Reports Tropical Cyclones / Hurricanes / Typhoons Weather Data and Links Wild Fires / Bushfires Weather Observation Techniques Weather Picture Catalogue Tornado Pictures and Reports Stock Video Footage and DVDs for sale
Season 1983-1984 Tropical Cyclone FERDINAND Track Map
Season 1983-1984 Summaries: [BoM-AU] [JTWC-AU] [JTWC-SIO] [JTWC-SPAC] [JTWC-SH]
<<- Previous TC | BoM 1983-1984 Season | Next TC ->>

click for intensity scale information  Lat/long Grid: Show Hide

 Date Labels: Show Hide

Bureau of Meteorology Tropical Cyclone Data

Name: FERDINAND
Number: 658 / 198384_17

02 Mar 1984 02:00 UTC to 04 Mar 1984 23:00 UTC

    date/time    lat    long    hPa   cat  kts
1984-03-02 02   11.9   131.1   1004                     
1984-03-02 05   11.9   131.3   1003                     
1984-03-02 08   11.9   131.6   1003                     
1984-03-02 10   11.8   131.8   1003                     
1984-03-02 14   11.7   131.9   1003                     
1984-03-02 17   11.5   131.8   1002                     
1984-03-02 20   11.1   131.8   1000                     
1984-03-02 23   10.9   132.2   1000                     
1984-03-03 02   10.9   132.5   1000                     
1984-03-03 05   11.1   132.8    998                     
1984-03-03 08   11.2   133.2    997                     
1984-03-03 11   11.3   133.4    997                     
1984-03-03 14   11.4   133.5    996                     
1984-03-03 17   11.5   133.6    993    1                
1984-03-03 20   11.6   133.7    991    1                
1984-03-03 23   11.6   133.8    991    1                
1984-03-04 02   11.7   134.0    988    1                
1984-03-04 05   11.8   134.1    983    2                
1984-03-04 08   11.9   134.3    980    2                
1984-03-04 11   12.0   134.4    984    2                
1984-03-04 14   12.2   134.5    990    1                
1984-03-04 17   12.5   134.6    995    1                
1984-03-04 20   12.7   134.4    997                     
1984-03-04 23   12.9   134.2   1000                     
Winds are 10-min average.

Tropical cyclone tracks developed by Michael Bath using data from the Bureau of Meteorology and Google Maps.


[Australian Severe Weather index] [Copyright Notice] [Email Contacts] [Search This Site] [Privacy Policy]
Document: tropical_cyclone_ferdinand.htm Updated: 30 May 2013